Time;durP1;ratioP1;P1;durP2;ratioP2;P2;SDS_P1;SDS_P2;PMS_P1;PMS_P2;Temp;Humidity;BMP_temperature;BMP_pressure;BME280_temperature;BME280_humidity;BME280_pressure;Samples;Min_cycle;Max_cycle;Signal;HPM_P1;HPM_P2
2023/09/30 00:07:58;;;;;;;;;;;14.20;99.90;;;;;;6722494;88;20056;-78
2023/09/30 00:17:58;;;;;;;;;;;13.90;99.90;;;;;;6717678;88;20550;-80
2023/09/30 00:27:59;;;;;;;;;;;13.80;99.90;;;;;;6734881;88;20080;-79
2023/09/30 00:37:59;;;;;;;;;;;13.70;99.90;;;;;;6733612;88;20128;-80
2023/09/30 00:48:01;;;;;;;;;;;13.60;99.90;;;;;;6743684;88;20077;-80
2023/09/30 00:58:01;;;;;;;;;;;13.60;99.90;;;;;;6720035;88;20581;-79
2023/09/30 01:08:02;;;;;;;;;;;13.50;99.90;;;;;;6727489;88;20071;-79
2023/09/30 01:18:03;;;;;;;;;;;13.40;99.90;;;;;;6734911;88;20067;-80
2023/09/30 01:28:07;;;;;;;;;;;13.50;99.90;;;;;;6727418;88;20083;-78
2023/09/30 01:38:07;;;;;;;;;;;13.40;99.90;;;;;;6731918;77;20561;-76
2023/09/30 01:48:10;;;;;;;;;;;13.50;99.90;;;;;;6699723;88;20083;-75
2023/09/30 01:58:11;;;;;;;;;;;13.40;99.90;;;;;;6712108;88;20076;-77
2023/09/30 02:08:13;;;;;;;;;;;13.40;99.90;;;;;;6711384;88;20051;-77
2023/09/30 02:18:14;;;;;;;;;;;13.30;99.90;;;;;;6712481;88;20141;-77
2023/09/30 02:28:15;;;;;;;;;;;13.20;99.90;;;;;;6708026;88;20527;-77
2023/09/30 02:38:16;;;;;;;;;;;13.20;99.90;;;;;;6710904;88;20089;-76
2023/09/30 02:48:16;;;;;;;;;;;13.20;99.90;;;;;;6710847;88;20504;-76
2023/09/30 02:58:18;;;;;;;;;;;13.10;99.90;;;;;;6709517;88;20059;-78
2023/09/30 03:08:18;;;;;;;;;;;13.10;99.90;;;;;;6710064;88;20113;-78
2023/09/30 03:18:26;;;;;;;;;;;12.90;99.90;;;;;;6712529;88;20658;-76
2023/09/30 03:28:27;;;;;;;;;;;12.90;99.90;;;;;;6707975;88;20568;-78
2023/09/30 03:38:27;;;;;;;;;;;12.90;99.90;;;;;;6705108;88;20182;-76
2023/09/30 03:48:27;;;;;;;;;;;12.80;99.90;;;;;;6710689;88;20092;-76
2023/09/30 03:58:28;;;;;;;;;;;12.70;99.90;;;;;;6708225;88;20142;-76
2023/09/30 04:08:29;;;;;;;;;;;12.70;99.90;;;;;;6705831;88;20186;-78
2023/09/30 04:18:30;;;;;;;;;;;12.50;99.90;;;;;;6706236;88;20566;-77
2023/09/30 04:28:30;;;;;;;;;;;12.40;99.90;;;;;;6709162;88;20524;-76
2023/09/30 04:38:31;;;;;;;;;;;12.40;99.90;;;;;;6706683;88;20060;-76
2023/09/30 04:48:32;;;;;;;;;;;12.20;99.90;;;;;;6711057;88;20050;-76
2023/09/30 04:58:32;;;;;;;;;;;12.20;99.90;;;;;;6707730;88;20120;-76
2023/09/30 05:08:33;;;;;;;;;;;12.20;99.90;;;;;;6711104;88;20079;-75
2023/09/30 05:18:33;;;;;;;;;;;12.00;99.90;;;;;;6708500;88;20246;-75
2023/09/30 05:28:34;;;;;;;;;;;12.00;99.90;;;;;;6711912;88;20064;-75
2023/09/30 05:38:34;;;;;;;;;;;11.80;99.90;;;;;;6722054;88;20075;-76
2023/09/30 05:48:36;;;;;;;;;;;11.90;99.90;;;;;;6710057;88;20055;-75
2023/09/30 05:58:37;;;;;;;;;;;11.90;99.90;;;;;;6708872;88;20610;-75
2023/09/30 06:08:38;;;;;;;;;;;11.80;99.90;;;;;;6711724;88;20196;-77
2023/09/30 06:18:39;;;;;;;;;;;11.70;99.90;;;;;;6719677;88;20930;-76
2023/09/30 06:28:40;;;;;;;;;;;11.70;99.90;;;;;;6718891;88;20067;-77
2023/09/30 06:38:50;;;;;;;;;;;11.80;99.90;;;;;;6722105;88;20086;-76
2023/09/30 06:48:52;;;;;;;;;;;11.90;99.90;;;;;;6713208;88;20070;-76
2023/09/30 06:58:52;;;;;;;;;;;11.80;99.90;;;;;;6710919;88;20072;-76
2023/09/30 07:08:53;;;;;;;;;;;12.00;99.90;;;;;;6720577;88;20833;-77
2023/09/30 07:18:53;;;;;;;;;;;12.20;99.90;;;;;;6711051;88;20534;-77
2023/09/30 07:28:56;;;;;;;;;;;12.70;99.90;;;;;;6708917;88;20108;-77
2023/09/30 07:38:56;;;;;;;;;;;13.00;99.90;;;;;;6707025;88;20080;-75
2023/09/30 07:48:58;;;;;;;;;;;13.50;99.90;;;;;;6708958;88;20410;-78
2023/09/30 07:58:59;;;;;;;;;;;15.90;99.90;;;;;;6717068;88;20620;-76
2023/09/30 08:08:59;;;;;;;;;;;19.70;99.90;;;;;;6710400;88;20140;-75
2023/09/30 08:19:00;;;;;;;;;;;16.40;99.90;;;;;;6705634;88;20178;-77
2023/09/30 08:29:00;;;;;;;;;;;18.60;99.90;;;;;;6712764;88;20199;-74
2023/09/30 08:39:01;;;;;;;;;;;16.60;99.90;;;;;;6706706;88;20184;-76
2023/09/30 08:49:03;;;;;;;;;;;16.70;99.90;;;;;;6716997;88;20565;-78
2023/09/30 08:59:03;;;;;;;;;;;17.30;99.90;;;;;;6710836;88;20076;-77
2023/09/30 09:09:16;;;;;;;;;;;17.90;99.90;;;;;;6714941;88;20060;-77
2023/09/30 09:19:17;;;;;;;;;;;18.40;99.90;;;;;;6711073;88;20088;-76
2023/09/30 09:29:24;;;;;;;;;;;18.70;99.90;;;;;;6705057;88;20059;-77
2023/09/30 09:39:29;;;;;;;;;;;19.90;99.90;;;;;;6713560;88;20086;-80
2023/09/30 09:49:31;;;;;;;;;;;19.10;99.90;;;;;;6719752;88;20073;-79
2023/09/30 09:59:32;;;;;;;;;;;20.20;99.90;;;;;;6719369;88;20071;-80
2023/09/30 10:09:34;;;;;;;;;;;21.70;99.90;;;;;;6711536;78;20643;-80
2023/09/30 10:19:35;;;;;;;;;;;22.40;99.90;;;;;;6706327;88;20070;-80
2023/09/30 10:29:39;;;;;;;;;;;22.10;99.90;;;;;;6717369;88;20068;-79
2023/09/30 10:39:53;;;;;;;;;;;23.80;99.90;;;;;;6717795;88;20562;-79
2023/09/30 10:49:54;;;;;;;;;;;23.20;99.90;;;;;;6718400;88;20063;-79
2023/09/30 11:00:08;;;;;;;;;;;24.70;99.90;;;;;;6725789;88;20089;-79
2023/09/30 11:10:09;;;;;;;;;;;25.00;99.90;;;;;;6721253;88;20125;-79
2023/09/30 11:20:10;;;;;;;;;;;26.00;98.10;;;;;;6716458;88;20063;-79
2023/09/30 11:30:12;;;;;;;;;;;26.00;97.20;;;;;;6713204;88;20153;-79
2023/09/30 11:40:16;;;;;;;;;;;24.40;98.90;;;;;;6712292;88;20068;-77
2023/09/30 11:50:16;;;;;;;;;;;23.20;98.60;;;;;;6710724;88;20080;-77
2023/09/30 12:00:17;;;;;;;;;;;24.00;96.80;;;;;;6713789;88;20079;-79
2023/09/30 12:10:18;;;;;;;;;;;24.20;98.60;;;;;;6717472;88;20145;-78
2023/09/30 12:20:18;;;;;;;;;;;25.10;97.90;;;;;;6717124;88;20628;-78
2023/09/30 12:30:20;;;;;;;;;;;25.10;98.50;;;;;;6713802;88;20174;-78
2023/09/30 12:40:20;;;;;;;;;;;25.00;97.80;;;;;;6724997;88;20081;-82
2023/09/30 12:50:20;;;;;;;;;;;25.10;98.00;;;;;;6723553;88;20408;-83
2023/09/30 13:00:25;;;;;;;;;;;25.10;97.90;;;;;;6728085;88;20069;-83
2023/09/30 13:10:25;;;;;;;;;;;25.20;97.40;;;;;;6728324;88;20088;-83
2023/09/30 13:20:26;;;;;;;;;;;25.50;96.60;;;;;;6742057;88;20076;-82
2023/09/30 13:30:26;;;;;;;;;;;25.20;97.10;;;;;;6745456;88;20130;-82
2023/09/30 13:40:27;;;;;;;;;;;24.80;96.80;;;;;;6736054;88;20070;-82
2023/09/30 13:50:27;;;;;;;;;;;26.00;96.00;;;;;;6751597;88;20127;-82
2023/09/30 14:00:48;;;;;;;;;;;24.60;97.40;;;;;;6728940;78;20522;-78
2023/09/30 14:10:48;;;;;;;;;;;24.40;96.70;;;;;;6701442;88;20063;-77
2023/09/30 14:20:50;;;;;;;;;;;24.30;98.00;;;;;;6692472;88;20119;-78
2023/09/30 14:30:50;;;;;;;;;;;23.70;97.80;;;;;;6695689;88;20554;-78
2023/09/30 14:40:51;;;;;;;;;;;23.10;97.40;;;;;;6698541;88;20056;-78
2023/09/30 14:50:52;;;;;;;;;;;23.00;98.40;;;;;;6696170;88;20067;-78
2023/09/30 15:00:53;;;;;;;;;;;22.60;99.10;;;;;;6695526;88;20064;-78
2023/09/30 15:10:54;;;;;;;;;;;22.70;99.20;;;;;;6694307;88;20079;-78
2023/09/30 15:20:55;;;;;;;;;;;22.00;99.90;;;;;;6690090;88;20065;-78
2023/09/30 15:30:56;;;;;;;;;;;21.60;99.90;;;;;;6694867;88;20059;-78
2023/09/30 15:41:03;;;;;;;;;;;21.40;99.90;;;;;;6701390;88;20186;-79
2023/09/30 15:51:03;;;;;;;;;;;21.00;99.90;;;;;;6692505;88;20082;-78
2023/09/30 16:01:04;;;;;;;;;;;20.40;99.90;;;;;;6696101;88;20494;-79
2023/09/30 16:11:04;;;;;;;;;;;20.10;99.90;;;;;;6695812;88;20063;-78
2023/09/30 16:21:05;;;;;;;;;;;19.80;99.90;;;;;;6706297;88;20563;-79
2023/09/30 16:31:06;;;;;;;;;;;19.50;99.90;;;;;;6691114;88;20060;-79
2023/09/30 16:41:07;;;;;;;;;;;19.20;99.90;;;;;;6692142;88;20187;-79
2023/09/30 16:51:08;;;;;;;;;;;19.10;99.90;;;;;;6695819;88;20047;-81
2023/09/30 17:01:09;;;;;;;;;;;18.90;99.90;;;;;;6696059;88;20074;-79
2023/09/30 17:11:10;;;;;;;;;;;18.60;99.90;;;;;;6683281;88;20147;-79
2023/09/30 17:21:10;;;;;;;;;;;18.20;99.90;;;;;;6684172;88;20069;-79
2023/09/30 17:31:12;;;;;;;;;;;17.90;99.90;;;;;;6681768;88;20078;-79
2023/09/30 17:41:12;;;;;;;;;;;17.60;99.90;;;;;;6684440;89;20095;-79
2023/09/30 17:51:18;;;;;;;;;;;17.40;99.90;;;;;;6684227;88;20528;-79
2023/09/30 18:01:22;;;;;;;;;;;17.10;99.90;;;;;;6681948;88;20072;-79
2023/09/30 18:11:23;;;;;;;;;;;16.60;99.90;;;;;;6692062;88;20060;-79
2023/09/30 18:21:23;;;;;;;;;;;16.30;99.90;;;;;;6692187;88;20162;-79
2023/09/30 18:31:24;;;;;;;;;;;16.10;99.90;;;;;;6693323;88;20067;-79
2023/09/30 18:41:25;;;;;;;;;;;15.90;99.90;;;;;;6698884;88;20068;-79
2023/09/30 18:51:26;;;;;;;;;;;15.80;99.90;;;;;;6691960;88;20067;-79
2023/09/30 19:01:27;;;;;;;;;;;15.50;99.90;;;;;;6696262;88;20152;-79
2023/09/30 19:11:28;;;;;;;;;;;15.30;99.90;;;;;;6690272;88;20096;-78
2023/09/30 19:21:29;;;;;;;;;;;15.00;99.90;;;;;;6704309;88;20507;-79
2023/09/30 19:31:29;;;;;;;;;;;14.80;99.90;;;;;;6702091;88;20058;-79
2023/09/30 19:41:29;;;;;;;;;;;14.60;99.90;;;;;;6695991;88;20100;-79
2023/09/30 19:51:30;;;;;;;;;;;14.70;99.90;;;;;;6701338;88;20118;-79
2023/09/30 20:01:52;;;;;;;;;;;14.50;99.90;;;;;;6721548;77;20051;-82
2023/09/30 20:11:58;;;;;;;;;;;14.30;99.90;;;;;;6717587;88;20185;-83
2023/09/30 20:22:00;;;;;;;;;;;14.40;99.90;;;;;;6722727;88;20067;-82
2023/09/30 20:32:01;;;;;;;;;;;14.30;99.90;;;;;;6725660;88;20123;-81
2023/09/30 20:42:02;;;;;;;;;;;14.20;99.90;;;;;;6727220;88;20072;-82
2023/09/30 20:52:06;;;;;;;;;;;14.00;99.90;;;;;;6727299;88;20501;-82
2023/09/30 21:02:07;;;;;;;;;;;14.00;99.90;;;;;;6727732;88;20653;-82
2023/09/30 21:12:08;;;;;;;;;;;14.00;99.90;;;;;;6727838;88;20555;-83
2023/09/30 21:22:08;;;;;;;;;;;14.00;99.90;;;;;;6728714;88;20059;-81
2023/09/30 21:32:09;;;;;;;;;;;14.10;99.90;;;;;;6728849;88;20071;-80
2023/09/30 21:42:09;;;;;;;;;;;14.10;99.90;;;;;;6728904;88;20054;-80
2023/09/30 21:52:10;;;;;;;;;;;14.00;99.90;;;;;;6727658;88;20169;-80
2023/09/30 22:02:10;;;;;;;;;;;13.80;99.90;;;;;;6722148;88;20087;-80
2023/09/30 22:12:11;;;;;;;;;;;13.70;99.90;;;;;;6727916;88;20071;-81
2023/09/30 22:22:11;;;;;;;;;;;13.50;99.90;;;;;;6727412;88;20074;-81
2023/09/30 22:32:12;;;;;;;;;;;13.40;99.90;;;;;;6726974;88;20318;-82
2023/09/30 22:42:12;;;;;;;;;;;13.20;99.90;;;;;;6727325;88;20160;-80
2023/09/30 22:52:13;;;;;;;;;;;13.10;99.90;;;;;;6723902;88;20064;-81
2023/09/30 23:02:14;;;;;;;;;;;12.90;99.90;;;;;;6728786;88;20125;-81
2023/09/30 23:12:15;;;;;;;;;;;12.70;99.90;;;;;;6726515;88;20583;-81
2023/09/30 23:22:18;;;;;;;;;;;12.50;99.90;;;;;;6723654;88;20065;-80
2023/09/30 23:32:18;;;;;;;;;;;12.30;99.90;;;;;;6735241;88;20127;-80
2023/09/30 23:42:19;;;;;;;;;;;12.40;99.90;;;;;;6730164;88;20054;-81
2023/09/30 23:52:23;;;;;;;;;;;12.50;99.90;;;;;;6722871;88;20083;-80
